createdAt,value
2019-03-18T00:00:27.780Z,100780.00
2019-03-18T00:02:57.896Z,100779.00
2019-03-18T00:05:26.373Z,100784.00
2019-03-18T00:07:54.857Z,100795.00
2019-03-18T00:10:23.663Z,100794.00
2019-03-18T00:12:53.681Z,100796.00
2019-03-18T00:15:22.452Z,100798.00
2019-03-18T00:17:50.946Z,100800.00
2019-03-18T00:20:19.406Z,100802.00
2019-03-18T00:22:47.916Z,100804.00
2019-03-18T00:25:16.723Z,100817.00
2019-03-18T00:27:46.807Z,100822.00
2019-03-18T00:30:20.144Z,100830.00
2019-03-18T00:32:48.828Z,100833.00
2019-03-18T00:35:17.269Z,100845.00
2019-03-18T00:37:45.719Z,100836.00
2019-03-18T00:40:15.579Z,100845.00
2019-03-18T00:42:44.015Z,100846.00
2019-03-18T00:45:15.054Z,100852.00
2019-03-18T00:47:45.893Z,100852.00
2019-03-18T00:50:16.357Z,100858.00
2019-03-18T00:52:44.892Z,100860.00
2019-03-18T00:55:13.739Z,100864.00
2019-03-18T00:57:43.087Z,100868.00
2019-03-18T01:00:15.792Z,100868.00
2019-03-18T01:02:44.497Z,100875.00
2019-03-18T01:05:13.117Z,100876.00
2019-03-18T01:07:41.696Z,100873.00
2019-03-18T01:10:17.149Z,100879.00
2019-03-18T01:12:45.611Z,100885.00
2019-03-18T01:15:26.821Z,100879.00
2019-03-18T01:17:44.916Z,100884.00
2019-03-18T01:20:14.169Z,100891.00
2019-03-18T01:22:42.638Z,100886.00
2019-03-18T01:25:11.203Z,100890.00
2019-03-18T01:27:39.646Z,100882.00
2019-03-18T01:30:14.534Z,100894.00
2019-03-18T01:32:43.065Z,100894.00
2019-03-18T01:35:11.571Z,100893.00
2019-03-18T01:37:40.025Z,100889.00
2019-03-18T01:40:11.144Z,100889.00
2019-03-18T01:42:39.862Z,100897.00
2019-03-18T01:45:08.951Z,100892.00
2019-03-18T01:47:37.478Z,100898.00
2019-03-18T01:50:16.834Z,100898.00
2019-03-18T01:52:45.311Z,100912.00
2019-03-18T01:55:13.765Z,100909.00
2019-03-18T01:57:42.218Z,100915.00
2019-03-18T02:00:12.951Z,100924.00
2019-03-18T02:02:41.571Z,100924.00
2019-03-18T02:05:10.700Z,100928.00
2019-03-18T02:07:39.277Z,100938.00
2019-03-18T02:10:14.922Z,100936.00
2019-03-18T02:12:43.424Z,100937.00
2019-03-18T02:15:13.011Z,100939.00
2019-03-18T02:17:41.449Z,100945.00
2019-03-18T02:20:13.241Z,100947.00
2019-03-18T02:22:41.859Z,100958.00
2019-03-18T02:25:10.673Z,100962.00
2019-03-18T02:27:39.478Z,100966.00
2019-03-18T02:30:12.811Z,100972.00
2019-03-18T02:32:41.264Z,100964.00
2019-03-18T02:35:09.810Z,100954.00
2019-03-18T02:37:38.257Z,100969.00
2019-03-18T02:40:08.658Z,100973.00
2019-03-18T02:42:37.281Z,100969.00
2019-03-18T02:45:08.628Z,100979.00
2019-03-18T02:47:37.345Z,100988.00
2019-03-18T02:50:07.369Z,100985.00
2019-03-18T02:52:36.101Z,100999.00
2019-03-18T02:55:06.154Z,100998.00
2019-03-18T02:57:36.277Z,101001.00
2019-03-18T03:00:12.620Z,100997.00
2019-03-18T03:02:41.292Z,101002.00
2019-03-18T03:05:11.225Z,100994.00
2019-03-18T03:07:39.968Z,100998.00
2019-03-18T03:10:10.537Z,101006.00
2019-03-18T03:12:39.232Z,101005.00
2019-03-18T03:15:10.040Z,101009.00
2019-03-18T03:17:38.518Z,101012.00
2019-03-18T03:20:09.006Z,101012.00
2019-03-18T03:22:37.462Z,101022.00
2019-03-18T03:25:07.621Z,101023.00
2019-03-18T03:27:36.771Z,101032.00
2019-03-18T03:30:10.961Z,101034.00
2019-03-18T03:32:39.516Z,101043.00
2019-03-18T03:35:08.065Z,101049.00
2019-03-18T03:37:36.512Z,101052.00
2019-03-18T03:40:08.355Z,101056.00
2019-03-18T03:42:36.908Z,101057.00
2019-03-18T03:45:07.527Z,101053.00
2019-03-18T03:47:35.962Z,101058.00
2019-03-18T03:50:06.397Z,101060.00
2019-03-18T03:52:35.427Z,101060.00
2019-03-18T03:55:04.729Z,101069.00
2019-03-18T03:57:33.244Z,101064.00
2019-03-18T04:00:01.772Z,101065.00
2019-03-18T04:02:31.879Z,101072.00
2019-03-18T04:05:00.803Z,101079.00
2019-03-18T04:07:29.283Z,101075.00
2019-03-18T04:09:57.889Z,101086.00
2019-03-18T04:12:26.440Z,101096.00
2019-03-18T04:14:55.029Z,101096.00
2019-03-18T04:17:23.685Z,101103.00
2019-03-18T04:19:52.347Z,101090.00
2019-03-18T04:22:20.910Z,101096.00
2019-03-18T04:24:49.405Z,101094.00
2019-03-18T04:27:17.928Z,101104.00
2019-03-18T04:29:46.373Z,101107.00
2019-03-18T04:32:14.855Z,101108.00
2019-03-18T04:34:43.423Z,101118.00
2019-03-18T04:37:12.138Z,101121.00
2019-03-18T04:39:40.600Z,101128.00
2019-03-18T04:42:09.138Z,101134.00
2019-03-18T04:44:37.705Z,101144.00
2019-03-18T04:47:14.301Z,101145.00
2019-03-18T04:49:36.823Z,101152.00
2019-03-18T04:52:05.340Z,101155.00
2019-03-18T04:54:33.784Z,101159.00
2019-03-18T04:57:02.292Z,101164.00
2019-03-18T04:59:30.822Z,101172.00
2019-03-18T05:01:59.315Z,101173.00
2019-03-18T05:04:27.877Z,101183.00
2019-03-18T05:06:56.321Z,101175.00
2019-03-18T05:09:24.855Z,101200.00
2019-03-18T05:11:53.336Z,101201.00
2019-03-18T05:14:21.853Z,101194.00
2019-03-18T05:16:50.426Z,101198.00
2019-03-18T05:19:20.584Z,101203.00
2019-03-18T05:21:49.341Z,101209.00
2019-03-18T05:24:17.788Z,101209.00
2019-03-18T05:26:46.503Z,101207.00
2019-03-18T05:29:15.069Z,101204.00
2019-03-18T05:31:43.557Z,101212.00
2019-03-18T05:34:12.078Z,101218.00
2019-03-18T05:36:40.519Z,101224.00
2019-03-18T05:39:08.982Z,101225.00
2019-03-18T05:41:37.468Z,101227.00
2019-03-18T05:44:07.976Z,101231.00
2019-03-18T05:46:36.986Z,101231.00
2019-03-18T05:49:05.478Z,101231.00
2019-03-18T05:51:33.926Z,101243.00
2019-03-18T05:54:02.448Z,101241.00
2019-03-18T05:56:31.020Z,101250.00
2019-03-18T05:58:59.526Z,101248.00
2019-03-18T06:01:28.133Z,101251.00
2019-03-18T06:03:56.606Z,101243.00
2019-03-18T06:06:25.075Z,101261.00
2019-03-18T06:08:53.559Z,101268.00
2019-03-18T06:11:22.071Z,101273.00
2019-03-18T06:13:50.551Z,101279.00
2019-03-18T06:16:19.062Z,101291.00
2019-03-18T06:18:47.566Z,101293.00
2019-03-18T06:21:16.096Z,101304.00
2019-03-18T06:23:44.538Z,101297.00
2019-03-18T06:26:13.056Z,101299.00
2019-03-18T06:28:41.678Z,101299.00
2019-03-18T06:31:10.122Z,101305.00
2019-03-18T06:33:38.857Z,101299.00
2019-03-18T06:36:07.464Z,101304.00
2019-03-18T06:38:35.902Z,101315.00
2019-03-18T06:41:04.758Z,101316.00
2019-03-18T06:43:33.340Z,101319.00
2019-03-18T06:46:01.772Z,101317.00
2019-03-18T06:48:30.265Z,101323.00
2019-03-18T06:50:58.875Z,101323.00
2019-03-18T06:53:27.451Z,101327.00
2019-03-18T06:55:56.116Z,101328.00
2019-03-18T06:58:24.600Z,101330.00
2019-03-18T07:00:53.084Z,101334.00
2019-03-18T07:03:21.567Z,101335.00
2019-03-18T07:05:50.041Z,101339.00
2019-03-18T07:08:18.555Z,101344.00
2019-03-18T07:10:47.085Z,101347.00
2019-03-18T07:13:15.543Z,101365.00
2019-03-18T07:15:44.118Z,101366.00
2019-03-18T07:18:18.295Z,101362.00
2019-03-18T07:20:42.778Z,101372.00
2019-03-18T07:23:11.244Z,101377.00
2019-03-18T07:25:39.743Z,101376.00
2019-03-18T07:28:08.202Z,101371.00
2019-03-18T07:30:37.161Z,101375.00
2019-03-18T07:33:05.763Z,101382.00
2019-03-18T07:35:34.279Z,101388.00
2019-03-18T07:38:03.014Z,101389.00
2019-03-18T07:40:31.542Z,101400.00
2019-03-18T07:43:00.357Z,101406.00
2019-03-18T07:45:29.174Z,101411.00
2019-03-18T07:47:57.660Z,101408.00
2019-03-18T07:50:26.211Z,101416.00
2019-03-18T07:52:54.654Z,101424.00
2019-03-18T07:55:23.442Z,101424.00
2019-03-18T07:57:52.048Z,101427.00
2019-03-18T08:00:20.490Z,101436.00
2019-03-18T08:02:49.270Z,101428.00
2019-03-18T08:05:17.784Z,101427.00
2019-03-18T08:07:47.335Z,101433.00
2019-03-18T08:10:15.816Z,101435.00
2019-03-18T08:12:44.388Z,101439.00
2019-03-18T08:15:13.551Z,101441.00
2019-03-18T08:17:42.188Z,101441.00
2019-03-18T08:20:15.833Z,101438.00
2019-03-18T08:22:44.379Z,101440.00
2019-03-18T08:25:13.201Z,101433.00
2019-03-18T08:27:41.681Z,101453.00
2019-03-18T08:30:15.725Z,101456.00
2019-03-18T08:32:44.326Z,101453.00
2019-03-18T08:35:13.775Z,101464.00
2019-03-18T08:37:43.232Z,101478.00
2019-03-18T08:40:12.176Z,101467.00
2019-03-18T08:42:40.640Z,101476.00
2019-03-18T08:45:13.715Z,101478.00
2019-03-18T08:47:42.364Z,101488.00
2019-03-18T08:50:12.465Z,101493.00
2019-03-18T08:52:41.530Z,101496.00
2019-03-18T08:55:10.719Z,101491.00
2019-03-18T08:57:39.235Z,101490.00
2019-03-18T09:00:13.693Z,101484.00
2019-03-18T09:02:42.192Z,101502.00
2019-03-18T09:05:10.820Z,101505.00
2019-03-18T09:07:39.410Z,101511.00
2019-03-18T09:10:12.536Z,101519.00
2019-03-18T09:12:41.075Z,101528.00
2019-03-18T09:15:10.688Z,101523.00
2019-03-18T09:17:39.772Z,101540.00
2019-03-18T09:20:16.271Z,101546.00
2019-03-18T09:22:44.743Z,101537.00
2019-03-18T09:25:13.199Z,101563.00
2019-03-18T09:27:41.690Z,101539.00
2019-03-18T09:30:13.233Z,101567.00
2019-03-18T09:32:42.021Z,101573.00
2019-03-18T09:35:10.816Z,101589.00
2019-03-18T16:52:36.400Z,102014.00
2019-03-18T16:55:05.394Z,102016.00
2019-03-18T16:57:34.179Z,102016.00
2019-03-18T17:00:02.930Z,102025.00
2019-03-18T17:02:31.374Z,102026.00
2019-03-18T17:05:00.003Z,102034.00
2019-03-18T17:07:28.564Z,102044.00
2019-03-18T17:09:57.970Z,102040.00
2019-03-18T17:12:26.421Z,102043.00
2019-03-18T17:14:56.629Z,102043.00
2019-03-18T17:17:25.087Z,102043.00
2019-03-18T17:19:55.159Z,102054.00
2019-03-18T17:22:23.727Z,102057.00
2019-03-18T17:24:52.284Z,102057.00
2019-03-18T17:27:22.368Z,102059.00
2019-03-18T17:29:50.831Z,102059.00
2019-03-18T17:32:19.288Z,102064.00
2019-03-18T17:34:47.828Z,102068.00
2019-03-18T17:37:16.329Z,102078.00
2019-03-18T17:39:44.937Z,102074.00
2019-03-18T17:42:13.435Z,102067.00
2019-03-18T17:44:41.877Z,102080.00
2019-03-18T17:47:10.330Z,102073.00
2019-03-18T17:49:38.905Z,102077.00
2019-03-18T17:52:07.522Z,102076.00
2019-03-18T17:54:36.059Z,102085.00
2019-03-18T17:57:07.481Z,102098.00
2019-03-18T17:59:34.867Z,102086.00
2019-03-18T18:02:03.566Z,102108.00
2019-03-18T18:04:32.137Z,102110.00
2019-03-18T18:07:00.746Z,102110.00
2019-03-18T18:09:29.229Z,102114.00
2019-03-18T18:11:57.858Z,102110.00
2019-03-18T18:14:26.382Z,102115.00
2019-03-18T18:16:54.867Z,102120.00
2019-03-18T18:19:23.405Z,102130.00
2019-03-18T18:21:51.927Z,102133.00
2019-03-18T18:24:21.018Z,102140.00
2019-03-18T18:26:49.918Z,102144.00
2019-03-18T18:29:18.388Z,102142.00
2019-03-18T18:31:46.893Z,102139.00
2019-03-18T18:34:15.355Z,102144.00
2019-03-18T18:36:43.869Z,102152.00
2019-03-18T18:39:12.374Z,102154.00
2019-03-18T18:41:40.890Z,102152.00
2019-03-18T18:44:09.407Z,102162.00
2019-03-18T18:46:38.016Z,102169.00
2019-03-18T18:49:06.600Z,102181.00
2019-03-18T18:51:35.079Z,102182.00
2019-03-18T18:54:03.543Z,102183.00
2019-03-18T18:56:31.987Z,102189.00
2019-03-18T18:59:00.537Z,102190.00
2019-03-18T19:01:29.090Z,102189.00
2019-03-18T19:03:57.542Z,102190.00
2019-03-18T19:06:26.034Z,102197.00
2019-03-18T19:08:54.664Z,102198.00
2019-03-18T19:11:23.172Z,102198.00
2019-03-18T19:13:53.201Z,102199.00
2019-03-18T19:16:21.811Z,102204.00
2019-03-18T19:18:50.545Z,102196.00
2019-03-18T19:21:19.191Z,102204.00
2019-03-18T19:23:47.646Z,102207.00
2019-03-18T19:26:17.760Z,102208.00
2019-03-18T19:28:46.268Z,102215.00
2019-03-18T19:31:14.736Z,102216.00
2019-03-18T19:33:43.208Z,102217.00
2019-03-18T19:36:11.821Z,102226.00
2019-03-18T19:38:40.352Z,102221.00
2019-03-18T19:41:08.798Z,102230.00
2019-03-18T19:43:37.327Z,102233.00
2019-03-18T19:46:05.971Z,102236.00
2019-03-18T19:48:34.659Z,102235.00
2019-03-18T19:51:03.545Z,102238.00
2019-03-18T19:53:32.056Z,102241.00
2019-03-18T19:56:00.514Z,102246.00
2019-03-18T19:58:29.032Z,102243.00
2019-03-18T20:00:57.517Z,102247.00
2019-03-18T20:03:26.064Z,102245.00
2019-03-18T20:05:54.965Z,102246.00
2019-03-18T20:08:23.638Z,102255.00
2019-03-18T20:10:52.592Z,102258.00
2019-03-18T20:13:22.725Z,102258.00
2019-03-18T20:15:51.182Z,102263.00
2019-03-18T20:18:19.715Z,102263.00
2019-03-18T20:20:48.199Z,102265.00
2019-03-18T20:23:16.707Z,102262.00
2019-03-18T20:25:45.247Z,102269.00
